Wetterdaten: Woche 12.09.16 - 18.09.16 (KW37)
Datum Zeit Temp. Aussen Temp. o. S. +5cm Feuchte Auss BlattFeu 1 Luftdruck Regen Sonnenschein Regendauer Solar Windben Empfang
12.09.2016 00:00 17,5 C 16,2 C 14,2 C 88 % 3 lf 1017,1 hPa 0,0 l/m 0,00 h 0,00 h 0 W/m 0,0 km/h (0 Bft) 97,23 %
12.09.2016 01:00 16,7 C 15,3 C 13,6 C 89 % 8 lf 1016,9 hPa 0,0 l/m 0,00 h 0,00 h 0 W/m 0,0 km/h (0 Bft) 93,76 %
12.09.2016 02:00 16,0 C 15,3 C 13,2 C 91 % 11 lf 1016,6 hPa 0,0 l/m 0,00 h 0,00 h 0 W/m 2,0 km/h (1 Bft) 96,73 %
12.09.2016 03:00 15,6 C 15,4 C 12,8 C 93 % 9 lf 1016,2 hPa 0,0 l/m 0,00 h 0,00 h 0 W/m 4,6 km/h (1 Bft) 98,01 %
12.09.2016 04:00 15,4 C 15,6 C 13,0 C 94 % 4 lf 1016,2 hPa 0,0 l/m 0,00 h 0,00 h 0 W/m 5,9 km/h (2 Bft) 96,09 %
12.09.2016 05:00 15,4 C 15,2 C 13,0 C 94 % 4 lf 1016,0 hPa 0,0 l/m 0,00 h 0,00 h 0 W/m 6,2 km/h (2 Bft) 94,83 %
12.09.2016 06:00 15,0 C 14,4 C 12,3 C 94 % 11 lf 1016,0 hPa 0,0 l/m 0,00 h 0,00 h 4 W/m 3,6 km/h (1 Bft) 98,29 %
12.09.2016 07:00 14,7 C 14,8 C 12,6 C 95 % 11 lf 1015,9 hPa 0,0 l/m 0,23 h 0,00 h 30 W/m 6,5 km/h (2 Bft) 96,23 %
12.09.2016 08:00 15,4 C 18,3 C 14,5 C 96 % 2 lf 1016,0 hPa 0,0 l/m 1,00 h 0,00 h 166 W/m 9,6 km/h (2 Bft) 95,73 %
12.09.2016 09:00 18,7 C 25,6 C 18,0 C 88 % 0 lf 1016,2 hPa 0,0 l/m 1,00 h 0,00 h 316 W/m 11,5 km/h (2 Bft) 96,10 %
12.09.2016 10:00 22,3 C 28,1 C 24,4 C 74 % 0 lf 1016,4 hPa 0,0 l/m 0,97 h 0,00 h 454 W/m 12,1 km/h (2 Bft) 97,37 %
12.09.2016 11:00 24,2 C 31,0 C 28,8 C 69 % 0 lf 1016,2 hPa 0,0 l/m 1,00 h 0,00 h 577 W/m 10,6 km/h (2 Bft) 95,58 %
12.09.2016 12:00 27,5 C 35,5 C 29,1 C 61 % 0 lf 1016,0 hPa 0,0 l/m 0,97 h 0,00 h 667 W/m 7,7 km/h (2 Bft) 95,33 %
12.09.2016 13:00 29,8 C 38,3 C 27,6 C 52 % 0 lf 1015,8 hPa 0,0 l/m 1,00 h 0,00 h 673 W/m 7,5 km/h (2 Bft) 97,72 %
12.09.2016 14:00 30,9 C 39,1 C 27,5 C 49 % 0 lf 1015,4 hPa 0,0 l/m 1,00 h 0,00 h 850 W/m 8,3 km/h (2 Bft) 96,37 %
12.09.2016 15:00 30,8 C 37,1 C 29,7 C 48 % 0 lf 1015,0 hPa 0,0 l/m 0,98 h 0,00 h 560 W/m 9,4 km/h (2 Bft) 96,56 %
12.09.2016 16:00 30,8 C 37,7 C 27,8 C 49 % 0 lf 1014,6 hPa 0,0 l/m 1,00 h 0,00 h 442 W/m 6,4 km/h (2 Bft) 96,09 %
12.09.2016 17:00 30,7 C 36,3 C 27,0 C 49 % 0 lf 1014,4 hPa 0,0 l/m 1,00 h 0,00 h 299 W/m 6,5 km/h (2 Bft) 94,69 %
12.09.2016 18:00 30,1 C 31,3 C 25,6 C 51 % 0 lf 1014,1 hPa 0,0 l/m 0,90 h 0,00 h 133 W/m 6,4 km/h (2 Bft) 97,35 %
12.09.2016 19:00 28,5 C 26,7 C 22,4 C 58 % 0 lf 1013,8 hPa 0,0 l/m 0,23 h 0,00 h 27 W/m 3,9 km/h (1 Bft) 97,87 %
12.09.2016 20:00 25,5 C 23,1 C 19,3 C 69 % 0 lf 1014,1 hPa 0,0 l/m 0,00 h 0,00 h 8 W/m 0,9 km/h (0 Bft) 94,17 %
12.09.2016 21:00 23,2 C 21,2 C 18,1 C 76 % 1 lf 1014,2 hPa 0,0 l/m 0,00 h 0,00 h 5 W/m 0,0 km/h (0 Bft) 97,46 %
12.09.2016 22:00 21,7 C 19,9 C 17,4 C 81 % 1 lf 1014,2 hPa 0,0 l/m 0,00 h 0,00 h 0 W/m 0,2 km/h (0 Bft) 97,30 %
12.09.2016 23:00 20,5 C 19,1 C 16,7 C 84 % 2 lf 1014,3 hPa 0,0 l/m 0,00 h 0,00 h 0 W/m 0,0 km/h (0 Bft) 93,80 %
13.09.2016 00:00 19,6 C 18,7 C 16,1 C 87 % 2 lf 1014,1 hPa 0,0 l/m 0,00 h 0,00 h 0 W/m 0,0 km/h (0 Bft) 97,17 %
13.09.2016 01:00 19,0 C 18,7 C 15,9 C 90 % 3 lf 1014,1 hPa 0,0 l/m 0,00 h 0,00 h 0 W/m 2,3 km/h (1 Bft) 97,08 %
13.09.2016 02:00 18,6 C 18,1 C 15,4 C 91 % 2 lf 1013,9 hPa 0,0 l/m 0,00 h 0,00 h 0 W/m 1,8 km/h (1 Bft) 95,02 %
13.09.2016 03:00 18,2 C 17,8 C 15,0 C 92 % 3 lf 1013,7 hPa 0,0 l/m 0,00 h 0,00 h 3 W/m 2,9 km/h (1 Bft) 96,44 %
13.09.2016 04:00 17,9 C 17,8 C 15,0 C 93 % 2 lf 1013,6 hPa 0,0 l/m 0,00 h 0,00 h 5 W/m 5,3 km/h (1 Bft) 96,22 %
13.09.2016 05:00 17,7 C 17,9 C 15,0 C 93 % 2 lf 1013,5 hPa 0,0 l/m 0,00 h 0,00 h 5 W/m 5,9 km/h (2 Bft) 96,73 %
13.09.2016 06:00 17,8 C 18,2 C 15,0 C 92 % 2 lf 1013,3 hPa 0,0 l/m 0,00 h 0,00 h 8 W/m 7,3 km/h (2 Bft) 95,94 %
13.09.2016 07:00 18,0 C 18,3 C 15,6 C 91 % 1 lf 1013,5 hPa 0,0 l/m 0,68 h 0,00 h 34 W/m 8,2 km/h (2 Bft) 95,53 %
13.09.2016 08:00 18,8 C 22,0 C 17,7 C 90 % 1 lf 1013,6 hPa 0,0 l/m 1,00 h 0,00 h 167 W/m 11,1 km/h (2 Bft) 96,51 %
13.09.2016 09:00 22,0 C 29,0 C 21,0 C 82 % 0 lf 1013,7 hPa 0,0 l/m 1,00 h 0,00 h 388 W/m 14,8 km/h (3 Bft) 97,22 %
13.09.2016 10:00 25,4 C 32,1 C 28,1 C 72 % 0 lf 1013,7 hPa 0,0 l/m 1,00 h 0,00 h 605 W/m 14,5 km/h (3 Bft) 95,58 %
13.09.2016 11:00 28,2 C 34,7 C 33,4 C 65 % 0 lf 1013,5 hPa 0,0 l/m 1,00 h 0,00 h 573 W/m 15,1 km/h (3 Bft) 97,22 %
13.09.2016 12:00 30,6 C 36,6 C 32,1 C 57 % 0 lf 1013,1 hPa 0,0 l/m 0,97 h 0,00 h 645 W/m 16,5 km/h (3 Bft) 95,62 %
13.09.2016 13:00 32,0 C 37,2 C 30,5 C 51 % 0 lf 1012,7 hPa 0,0 l/m 1,00 h 0,00 h 666 W/m 17,8 km/h (3 Bft) 96,87 %
13.09.2016 14:00 32,8 C 37,8 C 30,8 C 47 % 0 lf 1012,2 hPa 0,0 l/m 1,00 h 0,00 h 638 W/m 20,3 km/h (4 Bft) 95,59 %
13.09.2016 15:00 33,4 C 37,8 C 32,4 C 45 % 0 lf 1011,7 hPa 0,0 l/m 1,00 h 0,00 h 627 W/m 19,5 km/h (3 Bft) 95,73 %
13.09.2016 16:00 33,3 C 37,3 C 30,7 C 45 % 0 lf 1011,3 hPa 0,0 l/m 1,00 h 0,00 h 441 W/m 19,4 km/h (3 Bft) 97,94 %
13.09.2016 17:00 33,0 C 36,0 C 29,7 C 46 % 0 lf 1010,9 hPa 0,0 l/m 1,00 h 0,00 h 290 W/m 19,0 km/h (3 Bft) 96,10 %
13.09.2016 18:00 32,1 C 32,2 C 28,1 C 48 % 0 lf 1010,8 hPa 0,0 l/m 0,90 h 0,00 h 125 W/m 16,9 km/h (3 Bft) 93,97 %
13.09.2016 19:00 30,3 C 28,8 C 24,2 C 52 % 0 lf 1010,7 hPa 0,0 l/m 0,23 h 0,00 h 26 W/m 9,9 km/h (2 Bft) 98,15 %
13.09.2016 20:00 27,6 C 25,2 C 20,6 C 59 % 0 lf 1010,8 hPa 0,0 l/m 0,00 h 0,00 h 5 W/m 5,3 km/h (1 Bft) 96,11 %
13.09.2016 21:00 25,0 C 22,8 C 19,2 C 67 % 0 lf 1010,9 hPa 0,0 l/m 0,00 h 0,00 h 5 W/m 0,9 km/h (0 Bft) 95,30 %
13.09.2016 22:00 23,1 C 21,5 C 18,2 C 73 % 0 lf 1010,9 hPa 0,0 l/m 0,00 h 0,00 h 5 W/m 0,0 km/h (0 Bft) 95,93 %
13.09.2016 23:00 21,6 C 20,1 C 17,1 C 78 % 1 lf 1010,9 hPa 0,0 l/m 0,00 h 0,00 h 5 W/m 0,0 km/h (0 Bft) 98,01 %
14.09.2016 00:00 20,3 C 18,9 C 16,3 C 82 % 1 lf 1011,0 hPa 0,0 l/m 0,00 h 0,00 h 5 W/m 0,0 km/h (0 Bft) 95,40 %
14.09.2016 01:00 19,2 C 17,5 C 15,7 C 85 % 2 lf 1011,1 hPa 0,0 l/m 0,00 h 0,00 h 5 W/m 0,0 km/h (0 Bft) 96,20 %
14.09.2016 02:00 18,4 C 17,2 C 15,1 C 87 % 2 lf 1011,1 hPa 0,0 l/m 0,00 h 0,00 h 0 W/m 0,0 km/h (0 Bft) 97,36 %
14.09.2016 03:00 17,9 C 17,3 C 14,9 C 90 % 3 lf 1011,1 hPa 0,0 l/m 0,00 h 0,00 h 5 W/m 0,0 km/h (0 Bft) 97,01 %
14.09.2016 04:00 17,4 C 16,4 C 14,4 C 91 % 3 lf 1011,1 hPa 0,0 l/m 0,00 h 0,00 h 4 W/m 0,0 km/h (0 Bft) 94,24 %
14.09.2016 05:00 16,9 C 16,2 C 14,2 C 92 % 3 lf 1011,1 hPa 0,0 l/m 0,00 h 0,00 h 5 W/m 2,9 km/h (1 Bft) 97,28 %
14.09.2016 06:00 16,7 C 17,0 C 14,0 C 93 % 2 lf 1011,1 hPa 0,0 l/m 0,00 h 0,00 h 18 W/m 4,5 km/h (1 Bft) 96,65 %
14.09.2016 07:00 16,9 C 17,8 C 14,7 C 94 % 2 lf 1011,3 hPa 0,0 l/m 0,67 h 0,00 h 41 W/m 6,0 km/h (2 Bft) 96,15 %
14.09.2016 08:00 18,0 C 22,0 C 17,0 C 91 % 1 lf 1011,5 hPa 0,0 l/m 1,00 h 0,00 h 164 W/m 7,9 km/h (2 Bft) 95,91 %
14.09.2016 09:00 21,8 C 28,2 C 21,2 C 79 % 0 lf 1011,8 hPa 0,0 l/m 1,00 h 0,00 h 328 W/m 12,2 km/h (2 Bft) 95,81 %
14.09.2016 10:00 25,7 C 32,6 C 28,4 C 66 % 0 lf 1012,0 hPa 0,0 l/m 1,00 h 0,00 h 975 W/m 17,9 km/h (3 Bft) 96,66 %
14.09.2016 11:00 28,4 C 34,7 C 33,9 C 58 % 0 lf 1012,1 hPa 0,0 l/m 1,00 h 0,00 h 582 W/m 16,5 km/h (3 Bft) 96,65 %
14.09.2016 12:00 30,4 C 36,4 C 31,9 C 51 % 0 lf 1012,1 hPa 0,0 l/m 0,97 h 0,00 h 653 W/m 16,4 km/h (3 Bft) 92,91 %
14.09.2016 13:00 32,1 C 37,5 C 30,2 C 46 % 0 lf 1012,0 hPa 0,0 l/m 1,00 h 0,00 h 675 W/m 19,8 km/h (3 Bft) 96,63 %
14.09.2016 14:00 32,8 C 37,5 C 30,6 C 42 % 0 lf 1011,8 hPa 0,0 l/m 1,00 h 0,00 h 1159 W/m 21,6 km/h (4 Bft) 98,65 %
14.09.2016 15:00 32,9 C 37,7 C 32,0 C 42 % 0 lf 1011,5 hPa 0,0 l/m 1,00 h 0,00 h 1193 W/m 17,9 km/h (3 Bft) 93,88 %
14.09.2016 16:00 33,0 C 37,5 C 30,0 C 40 % 0 lf 1011,1 hPa 0,0 l/m 1,00 h 0,00 h 1124 W/m 15,2 km/h (3 Bft) 96,51 %
14.09.2016 17:00 32,6 C 35,6 C 29,1 C 39 % 0 lf 1010,8 hPa 0,0 l/m 1,00 h 0,00 h 1018 W/m 18,1 km/h (3 Bft) 96,51 %
14.09.2016 18:00 31,8 C 31,7 C 26,1 C 43 % 0 lf 1010,8 hPa 0,0 l/m 1,00 h 0,00 h 913 W/m 8,9 km/h (2 Bft) 97,59 %
14.09.2016 19:00 29,5 C 26,7 C 20,8 C 52 % 0 lf 1010,7 hPa 0,0 l/m 0,67 h 0,00 h 636 W/m 1,8 km/h (1 Bft) 94,59 %
14.09.2016 20:00 25,9 C 23,2 C 17,6 C 63 % 0 lf 1010,9 hPa 0,0 l/m 0,00 h 0,00 h 5 W/m 0,0 km/h (0 Bft) 96,80 %
14.09.2016 21:00 23,3 C 21,1 C 17,0 C 72 % 0 lf 1011,0 hPa 0,0 l/m 0,00 h 0,00 h 5 W/m 0,0 km/h (0 Bft) 97,79 %
14.09.2016 22:00 21,6 C 19,8 C 16,5 C 77 % 1 lf 1011,1 hPa 0,0 l/m 0,00 h 0,00 h 4 W/m 0,1 km/h (0 Bft) 94,15 %
14.09.2016 23:00 20,4 C 18,6 C 16,1 C 81 % 1 lf 1010,9 hPa 0,0 l/m 0,00 h 0,00 h 5 W/m 0,6 km/h (0 Bft) 95,52 %
15.09.2016 00:00 19,2 C 17,6 C 15,5 C 83 % 1 lf 1010,5 hPa 0,0 l/m 0,00 h 0,00 h 5 W/m 0,1 km/h (0 Bft) 98,24 %
15.09.2016 01:00 18,5 C 16,8 C 14,9 C 85 % 1 lf 1010,2 hPa 0,0 l/m 0,00 h 0,00 h 0 W/m 0,9 km/h (0 Bft) 95,45 %
15.09.2016 02:00 17,6 C 16,1 C 14,3 C 87 % 2 lf 1010,2 hPa 0,0 l/m 0,00 h 0,00 h 0 W/m 0,6 km/h (0 Bft) 95,73 %
15.09.2016 03:00 17,0 C 15,6 C 13,9 C 89 % 2 lf 1009,9 hPa 0,0 l/m 0,00 h 0,00 h 4 W/m 0,0 km/h (0 Bft) 97,58 %
15.09.2016 04:00 16,4 C 14,9 C 13,4 C 90 % 3 lf 1009,5 hPa 0,0 l/m 0,00 h 0,00 h 5 W/m 0,0 km/h (0 Bft) 95,30 %
15.09.2016 05:00 15,8 C 14,5 C 13,0 C 91 % 3 lf 1009,2 hPa 0,0 l/m 0,00 h 0,00 h 5 W/m 0,4 km/h (0 Bft) 98,08 %
15.09.2016 06:00 15,4 C 14,5 C 12,9 C 92 % 3 lf 1009,1 hPa 0,0 l/m 0,00 h 0,00 h 4 W/m 0,0 km/h (0 Bft) 95,47 %
15.09.2016 07:00 15,4 C 15,7 C 14,3 C 93 % 2 lf 1009,2 hPa 0,0 l/m 0,00 h 0,00 h 20 W/m 0,6 km/h (0 Bft) 95,51 %
15.09.2016 08:00 16,5 C 21,5 C 16,8 C 95 % 1 lf 1009,4 hPa 0,0 l/m 1,00 h 0,00 h 154 W/m 0,4 km/h (0 Bft) 97,80 %
15.09.2016 09:00 19,9 C 31,4 C 20,2 C 87 % 0 lf 1009,4 hPa 0,0 l/m 1,00 h 0,00 h 312 W/m 5,2 km/h (1 Bft) 96,30 %
15.09.2016 10:00 24,8 C 33,2 C 27,8 C 68 % 0 lf 1009,3 hPa 0,0 l/m 1,00 h 0,00 h 460 W/m 10,3 km/h (2 Bft) 94,17 %
15.09.2016 11:00 27,8 C 34,2 C 32,3 C 56 % 0 lf 1009,1 hPa 0,0 l/m 1,00 h 0,00 h 581 W/m 19,4 km/h (3 Bft) 98,22 %
15.09.2016 12:00 29,5 C 35,1 C 30,8 C 49 % 0 lf 1008,7 hPa 0,0 l/m 1,00 h 0,00 h 653 W/m 19,8 km/h (3 Bft) 96,74 %
15.09.2016 13:00 30,6 C 35,9 C 28,6 C 44 % 0 lf 1008,6 hPa 0,0 l/m 1,00 h 0,00 h 669 W/m 22,3 km/h (4 Bft) 94,02 %
15.09.2016 14:00 30,9 C 35,5 C 29,1 C 44 % 0 lf 1008,4 hPa 0,0 l/m 1,00 h 0,00 h 592 W/m 17,4 km/h (3 Bft) 97,37 %
15.09.2016 15:00 31,2 C 35,8 C 30,3 C 45 % 0 lf 1008,0 hPa 0,0 l/m 1,00 h 0,00 h 546 W/m 15,4 km/h (3 Bft) 97,36 %
15.09.2016 16:00 31,0 C 35,3 C 29,1 C 46 % 0 lf 1007,7 hPa 0,0 l/m 0,97 h 0,00 h 405 W/m 11,5 km/h (2 Bft) 95,66 %
15.09.2016 17:00 30,0 C 30,1 C 26,5 C 50 % 0 lf 1007,8 hPa 0,0 l/m 0,13 h 0,00 h 141 W/m 6,2 km/h (2 Bft) 96,22 %
15.09.2016 18:00 28,2 C 27,5 C 25,1 C 57 % 0 lf 1008,2 hPa 0,0 l/m 0,60 h 0,00 h 138 W/m 15,5 km/h (3 Bft) 96,53 %
15.09.2016 19:00 25,7 C 24,9 C 23,0 C 65 % 0 lf 1008,9 hPa 0,0 l/m 0,43 h 0,00 h 29 W/m 22,1 km/h (4 Bft) 96,86 %
15.09.2016 20:00 23,6 C 22,9 C 21,0 C 69 % 0 lf 1009,7 hPa 0,0 l/m 0,00 h 0,00 h 0 W/m 20,2 km/h (4 Bft) 94,31 %
15.09.2016 21:00 21,7 C 21,2 C 19,7 C 72 % 0 lf 1010,6 hPa 0,0 l/m 0,00 h 0,00 h 0 W/m 31,1 km/h (5 Bft) 98,01 %
15.09.2016 22:00 19,4 C 18,2 C 17,3 C 82 % 6 lf 1011,3 hPa 0,4 l/m 0,00 h 0,40 h 4 W/m 26,9 km/h (4 Bft) 95,94 %
15.09.2016 23:00 17,4 C 16,1 C 15,6 C 92 % 15 lf 1011,5 hPa 1,0 l/m 0,00 h 0,97 h 2 W/m 14,7 km/h (3 Bft) 96,37 %
16.09.2016 00:00 17,0 C 16,4 C 15,6 C 95 % 15 lf 1012,2 hPa 0,4 l/m 0,00 h 0,67 h 0 W/m 5,3 km/h (1 Bft) 95,51 %
16.09.2016 01:00 16,9 C 16,1 C 15,4 C 96 % 15 lf 1012,4 hPa 0,2 l/m 0,00 h 0,33 h 0 W/m 6,4 km/h (2 Bft) 96,44 %
16.09.2016 02:00 16,6 C 15,8 C 14,8 C 96 % 15 lf 1012,5 hPa 0,4 l/m 0,00 h 0,00 h 0 W/m 7,2 km/h (2 Bft) 95,73 %
16.09.2016 03:00 16,3 C 15,9 C 14,8 C 96 % 15 lf 1012,5 hPa 0,4 l/m 0,00 h 0,00 h 0 W/m 6,5 km/h (2 Bft) 97,94 %
16.09.2016 04:00 16,0 C 15,4 C 13,9 C 96 % 15 lf 1012,4 hPa 0,2 l/m 0,00 h 0,00 h 0 W/m 2,3 km/h (1 Bft) 94,02 %
16.09.2016 05:00 15,7 C 15,3 C 13,9 C 97 % 15 lf 1012,2 hPa 0,0 l/m 0,00 h 0,00 h 0 W/m 5,3 km/h (1 Bft) 97,57 %
16.09.2016 06:00 15,4 C 15,0 C 13,4 C 97 % 15 lf 1012,0 hPa 0,2 l/m 0,00 h 0,00 h 28 W/m 5,4 km/h (1 Bft) 98,36 %
16.09.2016 07:00 15,1 C 14,7 C 13,4 C 97 % 15 lf 1012,1 hPa 0,0 l/m 0,60 h 0,00 h 38 W/m 5,5 km/h (1 Bft) 93,95 %
16.09.2016 08:00 15,5 C 16,4 C 14,7 C 98 % 15 lf 1012,6 hPa 0,0 l/m 0,97 h 0,00 h 160 W/m 7,5 km/h (2 Bft) 96,52 %
16.09.2016 09:00 17,0 C 24,4 C 16,3 C 96 % 6 lf 1012,8 hPa 0,0 l/m 1,00 h 0,00 h 342 W/m 13,9 km/h (3 Bft) 98,29 %
16.09.2016 10:00 19,1 C 26,6 C 19,6 C 83 % 0 lf 1013,0 hPa 0,0 l/m 1,00 h 0,00 h 489 W/m 20,4 km/h (4 Bft) 93,59 %
16.09.2016 11:00 20,0 C 26,9 C 22,9 C 77 % 0 lf 1012,9 hPa 0,2 l/m 1,00 h 0,00 h 596 W/m 24,2 km/h (4 Bft) 97,22 %
16.09.2016 12:00 20,7 C 26,9 C 21,5 C 74 % 0 lf 1012,7 hPa 0,0 l/m 0,97 h 0,00 h 572 W/m 21,9 km/h (4 Bft) 96,24 %
16.09.2016 13:00 21,2 C 24,5 C 21,1 C 70 % 0 lf 1012,6 hPa 0,0 l/m 0,77 h 0,00 h 426 W/m 21,2 km/h (4 Bft) 95,80 %
16.09.2016 14:00 20,5 C 21,9 C 21,0 C 72 % 0 lf 1012,3 hPa 0,0 l/m 0,07 h 0,00 h 273 W/m 17,6 km/h (3 Bft) 94,94 %
16.09.2016 15:00 21,0 C 23,4 C 21,9 C 68 % 0 lf 1011,8 hPa 0,0 l/m 0,97 h 0,00 h 332 W/m 20,2 km/h (4 Bft) 97,01 %
16.09.2016 16:00 22,0 C 25,8 C 22,7 C 65 % 0 lf 1011,4 hPa 0,0 l/m 1,00 h 0,00 h 405 W/m 18,0 km/h (3 Bft) 96,73 %
16.09.2016 17:00 22,3 C 22,9 C 21,5 C 64 % 0 lf 1011,0 hPa 0,0 l/m 0,20 h 0,00 h 143 W/m 12,6 km/h (3 Bft) 94,88 %
16.09.2016 18:00 21,3 C 21,3 C 19,8 C 66 % 0 lf 1011,0 hPa 0,0 l/m 0,00 h 0,00 h 64 W/m 11,9 km/h (2 Bft) 96,16 %
16.09.2016 19:00 20,4 C 19,7 C 17,9 C 70 % 0 lf 1011,0 hPa 0,0 l/m 0,33 h 0,00 h 21 W/m 6,9 km/h (2 Bft) 98,08 %
16.09.2016 20:00 19,7 C 19,3 C 17,5 C 73 % 0 lf 1011,4 hPa 0,0 l/m 0,00 h 0,00 h 5 W/m 9,7 km/h (2 Bft) 94,24 %
16.09.2016 21:00 19,2 C 18,7 C 16,9 C 75 % 0 lf 1011,7 hPa 0,0 l/m 0,00 h 0,00 h 5 W/m 7,5 km/h (2 Bft) 96,86 %
16.09.2016 22:00 18,3 C 17,3 C 15,2 C 79 % 0 lf 1011,7 hPa 0,0 l/m 0,00 h 0,00 h 5 W/m 6,0 km/h (2 Bft) 97,79 %
16.09.2016 23:00 17,4 C 17,2 C 15,2 C 81 % 0 lf 1011,9 hPa 0,0 l/m 0,00 h 0,00 h 5 W/m 5,3 km/h (1 Bft) 95,23 %
17.09.2016 00:00 17,1 C 16,8 C 15,1 C 83 % 0 lf 1012,1 hPa 0,0 l/m 0,00 h 0,00 h 5 W/m 4,1 km/h (1 Bft) 95,62 %
17.09.2016 01:00 16,8 C 16,2 C 14,5 C 84 % 0 lf 1012,2 hPa 0,0 l/m 0,00 h 0,00 h 5 W/m 5,1 km/h (1 Bft) 97,94 %
17.09.2016 02:00 15,9 C 14,9 C 12,8 C 86 % 1 lf 1012,1 hPa 0,0 l/m 0,00 h 0,00 h 4 W/m 4,1 km/h (1 Bft) 94,59 %
17.09.2016 03:00 15,0 C 14,0 C 12,2 C 88 % 1 lf 1012,3 hPa 0,0 l/m 0,00 h 0,00 h 4 W/m 2,2 km/h (1 Bft) 98,07 %
17.09.2016 04:00 14,3 C 13,9 C 12,3 C 91 % 1 lf 1012,6 hPa 0,0 l/m 0,00 h 0,00 h 0 W/m 4,3 km/h (1 Bft) 95,42 %
17.09.2016 05:00 14,2 C 13,9 C 12,5 C 93 % 1 lf 1012,7 hPa 0,0 l/m 0,00 h 0,00 h 0 W/m 2,4 km/h (1 Bft) 95,79 %
17.09.2016 06:00 14,0 C 13,4 C 12,0 C 93 % 2 lf 1013,0 hPa 0,0 l/m 0,00 h 0,00 h 0 W/m 0,9 km/h (0 Bft) 97,66 %
17.09.2016 07:00 13,6 C 13,4 C 11,9 C 94 % 3 lf 1013,6 hPa 0,0 l/m 0,00 h 0,00 h 20 W/m 2,4 km/h (1 Bft) 97,01 %
17.09.2016 08:00 13,8 C 17,3 C 13,8 C 95 % 1 lf 1014,1 hPa 0,0 l/m 0,80 h 0,00 h 147 W/m 2,1 km/h (1 Bft) 93,17 %
17.09.2016 09:00 15,9 C 22,8 C 16,4 C 95 % 0 lf 1014,1 hPa 0,0 l/m 0,90 h 0,00 h 281 W/m 9,3 km/h (2 Bft) 99,00 %
17.09.2016 10:00 18,0 C 22,3 C 19,2 C 87 % 0 lf 1014,8 hPa 0,0 l/m 0,47 h 0,00 h 269 W/m 6,8 km/h (2 Bft) 96,15 %
17.09.2016 11:00 18,6 C 22,3 C 20,3 C 85 % 0 lf 1015,2 hPa 0,0 l/m 0,67 h 0,00 h 317 W/m 8,1 km/h (2 Bft) 94,61 %
17.09.2016 12:00 20,0 C 27,4 C 21,9 C 81 % 0 lf 1015,0 hPa 0,0 l/m 1,00 h 0,00 h 1103 W/m 11,4 km/h (2 Bft) 98,15 %
17.09.2016 13:00 21,1 C 28,0 C 21,6 C 76 % 0 lf 1015,1 hPa 0,0 l/m 1,00 h 0,00 h 1136 W/m 9,6 km/h (2 Bft) 96,01 %
17.09.2016 14:00 21,7 C 27,7 C 22,6 C 73 % 0 lf 1015,1 hPa 0,0 l/m 1,00 h 0,00 h 1180 W/m 11,7 km/h (2 Bft) 94,03 %
17.09.2016 15:00 21,2 C 22,7 C 21,2 C 75 % 0 lf 1015,3 hPa 0,0 l/m 0,80 h 0,00 h 844 W/m 16,4 km/h (3 Bft) 97,57 %
17.09.2016 16:00 20,6 C 21,1 C 19,8 C 78 % 0 lf 1015,3 hPa 0,0 l/m 0,00 h 0,03 h 109 W/m 16,2 km/h (3 Bft) 97,29 %
17.09.2016 17:00 20,0 C 20,4 C 19,1 C 82 % 4 lf 1015,4 hPa 0,0 l/m 0,00 h 0,17 h 96 W/m 16,2 km/h (3 Bft) 93,59 %
17.09.2016 18:00 19,5 C 19,5 C 18,3 C 84 % 0 lf 1015,5 hPa 0,0 l/m 0,00 h 0,00 h 42 W/m 12,8 km/h (3 Bft) 97,29 %
17.09.2016 19:00 19,0 C 18,6 C 17,4 C 87 % 0 lf 1015,5 hPa 0,0 l/m 0,00 h 0,00 h 10 W/m 9,2 km/h (2 Bft) 96,51 %
17.09.2016 20:00 18,6 C 17,9 C 16,4 C 89 % 11 lf 1015,9 hPa 0,0 l/m 0,00 h 0,83 h 0 W/m 6,7 km/h (2 Bft) 96,65 %
17.09.2016 21:00 18,1 C 17,1 C 15,6 C 91 % 15 lf 1016,3 hPa 0,2 l/m 0,00 h 0,73 h 0 W/m 5,7 km/h (1 Bft) 94,66 %
17.09.2016 22:00 17,7 C 16,7 C 15,6 C 92 % 15 lf 1016,2 hPa 0,2 l/m 0,00 h 0,60 h 0 W/m 5,2 km/h (1 Bft) 97,94 %
17.09.2016 23:00 17,4 C 16,7 C 15,6 C 94 % 15 lf 1016,0 hPa 0,0 l/m 0,00 h 0,07 h 0 W/m 6,6 km/h (2 Bft) 95,80 %
18.09.2016 00:00 17,3 C 16,7 C 15,3 C 94 % 15 lf 1015,9 hPa 0,0 l/m 0,00 h 0,43 h 0 W/m 7,1 km/h (2 Bft) 96,12 %
18.09.2016 01:00 17,2 C 16,7 C 15,5 C 95 % 15 lf 1015,8 hPa 0,0 l/m 0,00 h 0,20 h 0 W/m 5,9 km/h (2 Bft) 95,51 %
18.09.2016 02:00 17,2 C 16,7 C 15,6 C 96 % 15 lf 1015,6 hPa 0,0 l/m 0,00 h 0,20 h 0 W/m 5,6 km/h (1 Bft) 97,44 %
18.09.2016 03:00 17,1 C 16,7 C 15,3 C 96 % 14 lf 1015,5 hPa 0,0 l/m 0,00 h 0,00 h 0 W/m 8,7 km/h (2 Bft) 95,51 %
18.09.2016 04:00 16,7 C 16,3 C 14,8 C 96 % 2 lf 1015,4 hPa 0,0 l/m 0,00 h 0,00 h 0 W/m 11,5 km/h (2 Bft) 95,94 %
18.09.2016 05:00 16,1 C 15,7 C 14,3 C 95 % 1 lf 1015,2 hPa 0,0 l/m 0,00 h 0,00 h 0 W/m 14,4 km/h (3 Bft) 95,67 %
18.09.2016 06:00 15,6 C 15,6 C 13,9 C 95 % 1 lf 1015,1 hPa 0,0 l/m 0,00 h 0,00 h 0 W/m 14,2 km/h (3 Bft) 96,05 %
18.09.2016 07:00 15,3 C 15,6 C 13,9 C 95 % 1 lf 1015,4 hPa 0,0 l/m 0,00 h 0,00 h 7 W/m 17,8 km/h (3 Bft) 97,43 %
18.09.2016 08:00 15,3 C 15,8 C 14,2 C 96 % 1 lf 1015,5 hPa 0,2 l/m 0,00 h 0,00 h 35 W/m 13,5 km/h (3 Bft) 94,59 %
18.09.2016 09:00 15,7 C 16,2 C 15,0 C 95 % 1 lf 1015,4 hPa 0,0 l/m 0,00 h 0,00 h 48 W/m 15,2 km/h (3 Bft) 96,37 %
18.09.2016 10:00 15,8 C 16,4 C 15,1 C 93 % 1 lf 1015,8 hPa 0,0 l/m 0,00 h 0,00 h 42 W/m 14,2 km/h (3 Bft) 96,73 %
18.09.2016 11:00 16,0 C 16,6 C 15,3 C 92 % 0 lf 1015,9 hPa 0,0 l/m 0,00 h 0,00 h 63 W/m 15,0 km/h (3 Bft) 95,95 %
18.09.2016 12:00 16,2 C 17,0 C 15,8 C 91 % 0 lf 1015,9 hPa 0,0 l/m 0,00 h 0,00 h 88 W/m 15,3 km/h (3 Bft) 95,13 %
18.09.2016 13:00 16,7 C 18,3 C 17,2 C 90 % 0 lf 1015,9 hPa 0,0 l/m 0,00 h 0,00 h 168 W/m 14,8 km/h (3 Bft) 97,79 %
18.09.2016 14:00 17,4 C 19,3 C 18,1 C 87 % 0 lf 1015,8 hPa 0,0 l/m 0,00 h 0,00 h 197 W/m 16,2 km/h (3 Bft) 94,95 %
18.09.2016 15:00 18,0 C 20,2 C 18,9 C 84 % 0 lf 1015,7 hPa 0,0 l/m 0,07 h 0,00 h 253 W/m 17,3 km/h (3 Bft) 96,37 %
18.09.2016 16:00 18,5 C 22,4 C 18,9 C 81 % 0 lf 1015,5 hPa 0,0 l/m 1,00 h 0,00 h 302 W/m 15,9 km/h (3 Bft) 97,15 %
18.09.2016 17:00 19,1 C 22,9 C 18,3 C 78 % 0 lf 1015,3 hPa 0,0 l/m 1,00 h 0,00 h 247 W/m 16,5 km/h (3 Bft) 94,73 %
18.09.2016 18:00 19,0 C 19,8 C 16,8 C 79 % 0 lf 1015,3 hPa 0,0 l/m 0,53 h 0,00 h 93 W/m 11,8 km/h (2 Bft) 97,53 %
18.09.2016 19:00 17,9 C 16,5 C 14,7 C 82 % 0 lf 1015,6 hPa 0,0 l/m 0,30 h 0,00 h 18 W/m 6,8 km/h (2 Bft) 96,16 %
18.09.2016 20:00 16,6 C 15,2 C 13,5 C 86 % 1 lf 1015,8 hPa 0,0 l/m 0,00 h 0,00 h 0 W/m 4,8 km/h (1 Bft) 95,71 %
18.09.2016 21:00 15,6 C 14,3 C 12,7 C 88 % 1 lf 1016,2 hPa 0,0 l/m 0,00 h 0,00 h 2 W/m 3,3 km/h (1 Bft) 98,19 %
18.09.2016 22:00 14,8 C 13,9 C 12,5 C 89 % 1 lf 1016,3 hPa 0,0 l/m 0,00 h 0,00 h 3 W/m 2,1 km/h (1 Bft) 95,16 %
18.09.2016 23:00 14,3 C 13,9 C 12,9 C 91 % 1 lf 1016,4 hPa 0,0 l/m 0,00 h 0,00 h 4 W/m 4,5 km/h (1 Bft) 94,73 %
Min-Datum _ 17.09.16 17.09.16 17.09.16 14.09.16 12.09.16 15.09.16 - - - - 12.09.16 14.09.16
_ Min-Zeit 07:40 07:32 06:28 17:20 08:56 16:14 - - - - 00:00 12:58
Minimum _ 13,5 C 12,8 C 11,7 C 38 % 0 lf 1007,6 hPa - - - - 0,0 km/h (0 Bft) 33,33 %
Max-Datum _ 13.09.16 12.09.16 13.09.16 16.09.16 15.09.16 12.09.16 15.09.16 12.09.16 15.09.16 17.09.16 15.09.16 12.09.16
_ Max-Zeit 16:14 13:56 11:50 08:16 22:38 00:00 23:00 07:46 22:36 13:14 22:04 00:18
Maximum _ 33,5 C 41,1 C 35,0 C 98 % 15 lf 1017,1 hPa 1,0 l/m 0,03 h 0,03 h 1400 W/m 46,0 km/h
W-SW (6 Bft)
100,00 %
Durchschnitt _ 21,0 C 22,5 C 19,2 C 78 % 3 lf 1013,0 hPa #4,0 l/m #63:54 h #5:42 h 273 W/m 9,1 km/h (2 Bft) 96,25 %
© 2016 W. Hausmann